Time;durP1;ratioP1;P1;durP2;ratioP2;P2;SDS_P1;SDS_P2;PMS_P1;PMS_P2;Temp;Humidity;BMP_temperature;BMP_pressure;BME280_temperature;BME280_humidity;BME280_pressure;Samples;Min_cycle;Max_cycle;Signal;HPM_P1;HPM_P2
2021/06/21 00:01:25;;;;;;;8.00;1.87;;;20.10;99.80;;;;;;5077348;28;20476;-85
2021/06/21 00:03:53;;;;;;;3.73;1.63;;;20.10;99.80;;;;;;5081779;28;20490;-84
2021/06/21 00:06:21;;;;;;;3.83;1.80;;;20.20;99.80;;;;;;5078624;28;20460;-84
2021/06/21 00:08:52;;;;;;;3.90;1.90;;;20.30;99.80;;;;;;5078004;28;20475;-85
2021/06/21 00:11:20;;;;;;;6.93;2.90;;;20.30;99.80;;;;;;5080630;28;20451;-84
2021/06/21 00:13:48;;;;;;;2.33;2.10;;;20.30;99.80;;;;;;5086769;28;20471;-84
2021/06/21 00:16:16;;;;;;;4.63;3.10;;;20.30;99.80;;;;;;5076797;28;20463;-84
2021/06/21 00:18:45;;;;;;;4.60;3.53;;;;;;;;;;5076140;28;20474;-84
2021/06/21 00:21:13;;;;;;;3.20;3.00;;;;;;;;;;5074841;28;20458;-85
2021/06/21 00:23:41;;;;;;;8.37;3.20;;;20.20;99.80;;;;;;5080831;28;20456;-84
2021/06/21 00:26:11;;;;;;;6.73;4.60;;;20.20;99.80;;;;;;5079992;28;20459;-84
2021/06/21 00:28:39;;;;;;;4.10;2.43;;;20.20;99.80;;;;;;5079789;28;20494;-84
2021/06/21 00:31:07;;;;;;;4.07;3.10;;;20.20;99.80;;;;;;5086756;28;20462;-84
2021/06/21 00:33:37;;;;;;;3.63;3.33;;;20.20;99.80;;;;;;5077502;28;20438;-84
2021/06/21 00:36:06;;;;;;;4.13;3.03;;;20.20;99.80;;;;;;5077332;28;20465;-84
2021/06/21 00:38:34;;;;;;;4.90;3.30;;;20.20;99.80;;;;;;5078171;28;20475;-84
2021/06/21 00:41:02;;;;;;;5.80;2.90;;;20.10;99.80;;;;;;5067686;28;20466;-84
2021/06/21 00:43:31;;;;;;;2.93;2.73;;;20.10;99.80;;;;;;5051620;28;20459;-88
2021/06/21 00:45:59;;;;;;;2.50;2.30;;;20.10;99.80;;;;;;5064803;28;20489;-88
2021/06/21 00:48:27;;;;;;;7.30;2.43;;;20.10;99.80;;;;;;5038120;28;20483;-88
2021/06/21 00:50:56;;;;;;;5.20;3.10;;;20.10;99.80;;;;;;5062913;28;20983;-84
2021/06/21 00:53:24;;;;;;;4.00;2.93;;;20.10;99.80;;;;;;5073503;28;20443;-85
2021/06/21 00:55:53;;;;;;;3.50;3.20;;;20.10;99.80;;;;;;5061015;28;20485;-85
2021/06/21 00:58:21;;;;;;;7.80;4.40;;;20.10;99.80;;;;;;5057683;28;20481;-85
2021/06/21 01:00:51;;;;;;;6.30;3.50;;;20.10;99.80;;;;;;5064366;28;20470;-85
2021/06/21 01:03:19;;;;;;;7.10;3.97;;;20.10;99.80;;;;;;5037627;28;20474;-85
2021/06/21 01:05:47;;;;;;;6.17;3.83;;;20.10;99.80;;;;;;5033689;28;21013;-85
2021/06/21 01:08:15;;;;;;;8.17;2.93;;;;;;;;;;5030631;28;20655;-85
2021/06/21 01:10:45;;;;;;;6.40;3.30;;;20.10;99.80;;;;;;5035247;28;20469;-85
2021/06/21 01:13:40;;;;;;;10.80;4.17;;;20.00;99.80;;;;;;5037711;28;21028;-85
2021/06/21 01:16:17;;;;;;;9.73;4.33;;;19.90;99.80;;;;;;5035450;28;20490;-85
2021/06/21 01:18:52;;;;;;;5.53;3.50;;;19.80;99.80;;;;;;5042432;28;20463;-84
2021/06/21 01:21:55;;;;;;;6.83;3.73;;;19.70;99.80;;;;;;5041724;28;20477;-85
2021/06/21 01:25:05;;;;;;;4.83;3.10;;;19.70;99.80;;;;;;5041039;28;20463;-86
2021/06/21 01:27:41;;;;;;;9.53;3.30;;;19.60;99.80;;;;;;5039075;28;20554;-86
2021/06/21 01:30:11;;;;;;;6.10;2.97;;;19.50;99.80;;;;;;5034740;28;20475;-84
2021/06/21 01:32:46;;;;;;;4.40;2.70;;;19.50;99.80;;;;;;5042696;28;20490;-84
2021/06/21 01:35:19;;;;;;;6.00;2.73;;;19.40;99.80;;;;;;5047980;28;20461;-84
2021/06/21 01:37:49;;;;;;;14.10;3.00;;;19.30;99.80;;;;;;5055050;28;20509;-84
2021/06/21 01:40:20;;;;;;;9.47;2.17;;;19.30;99.80;;;;;;5056866;28;20477;-84
2021/06/21 01:42:52;;;;;;;3.70;2.10;;;19.30;99.80;;;;;;5059294;28;20477;-84
2021/06/21 01:45:21;;;;;;;7.90;2.57;;;19.20;99.80;;;;;;5059701;28;20459;-84
2021/06/21 01:47:54;;;;;;;5.73;2.10;;;19.20;99.80;;;;;;5046490;28;20452;-85
2021/06/21 01:50:23;;;;;;;9.70;2.57;;;19.10;99.80;;;;;;5045982;28;20482;-84
2021/06/21 01:52:59;;;;;;;8.93;2.60;;;19.00;99.80;;;;;;5054397;28;20483;-84
2021/06/21 01:55:30;;;;;;;6.53;3.50;;;19.00;99.80;;;;;;5068744;28;20467;-84
2021/06/21 01:57:59;;;;;;;6.23;3.07;;;18.90;99.80;;;;;;5029589;28;20453;-84
2021/06/21 02:00:28;;;;;;;6.10;2.87;;;18.90;99.80;;;;;;5044144;28;20470;-88
2021/06/21 02:03:00;;;;;;;7.20;2.77;;;18.90;99.80;;;;;;5058827;28;20458;-89
2021/06/21 02:05:34;;;;;;;6.50;2.63;;;18.90;99.80;;;;;;5053632;28;20467;-88
2021/06/21 02:08:03;;;;;;;10.30;3.97;;;18.80;99.80;;;;;;5051619;28;20454;-86
2021/06/21 02:10:34;;;;;;;11.43;3.73;;;18.70;99.80;;;;;;5048434;28;20486;-85
2021/06/21 02:13:03;;;;;;;11.13;3.70;;;18.70;99.80;;;;;;5045191;28;20456;-85
2021/06/21 02:15:32;;;;;;;8.27;3.07;;;18.70;99.80;;;;;;5037591;28;20455;-85
2021/06/21 02:18:02;;;;;;;5.03;3.10;;;18.70;99.80;;;;;;5042929;28;20460;-85
2021/06/21 02:20:31;;;;;;;5.90;2.20;;;18.70;99.80;;;;;;5069151;28;20478;-84
2021/06/21 02:22:59;;;;;;;6.63;2.60;;;18.70;99.80;;;;;;5054376;28;20482;-85
2021/06/21 02:25:27;;;;;;;9.17;3.93;;;18.70;99.80;;;;;;5054241;28;20472;-84
2021/06/21 02:27:58;;;;;;;9.40;2.90;;;18.60;99.80;;;;;;5052614;28;20467;-84
2021/06/21 02:30:28;;;;;;;5.90;2.93;;;18.60;99.80;;;;;;5049100;28;20497;-85
2021/06/21 02:32:56;;;;;;;5.20;3.37;;;18.60;99.80;;;;;;5055299;28;20522;-85
2021/06/21 02:35:27;;;;;;;9.77;3.03;;;18.60;99.80;;;;;;5058816;28;20843;-85
2021/06/21 02:37:55;;;;;;;11.20;3.40;;;18.60;99.80;;;;;;5049690;28;20471;-85
2021/06/21 02:40:24;;;;;;;6.60;3.13;;;18.60;99.80;;;;;;5049259;28;20557;-85
2021/06/21 02:42:52;;;;;;;6.63;2.73;;;18.70;99.80;;;;;;5047517;28;20470;-85
2021/06/21 02:45:20;;;;;;;7.10;2.73;;;18.70;99.80;;;;;;5056941;28;20856;-85
2021/06/21 02:47:49;;;;;;;11.40;2.90;;;18.60;99.80;;;;;;5048334;28;20538;-84
2021/06/21 02:50:18;;;;;;;9.03;3.03;;;18.60;99.80;;;;;;5043975;28;20476;-84
2021/06/21 02:52:54;;;;;;;5.97;2.53;;;18.70;99.80;;;;;;5067311;28;20469;-85
2021/06/21 02:55:26;;;;;;;6.20;2.60;;;18.60;99.80;;;;;;5053813;28;20475;-84
2021/06/21 02:58:02;;;;;;;6.00;2.73;;;18.60;99.80;;;;;;5046695;28;20478;-85
2021/06/21 03:00:31;;;;;;;5.87;2.20;;;18.60;99.80;;;;;;5029395;28;20478;-85
2021/06/21 03:02:59;;;;;;;5.53;2.90;;;18.50;99.80;;;;;;5058469;28;21133;-85
2021/06/21 03:05:28;;;;;;;6.37;2.10;;;18.50;99.80;;;;;;5041426;28;20487;-84
2021/06/21 03:08:00;;;;;;;5.63;2.53;;;18.50;99.80;;;;;;5038652;28;20478;-84
2021/06/21 03:10:30;;;;;;;4.23;2.20;;;18.50;99.80;;;;;;5048934;28;20600;-87
2021/06/21 03:12:58;;;;;;;5.10;2.27;;;18.50;99.80;;;;;;5050973;28;20455;-87
2021/06/21 03:15:28;;;;;;;5.50;2.40;;;18.50;99.80;;;;;;5060384;28;20839;-87
2021/06/21 03:17:58;;;;;;;7.37;2.90;;;18.50;99.80;;;;;;5061362;28;20471;-87
2021/06/21 03:20:27;;;;;;;5.10;2.83;;;18.50;99.80;;;;;;5050228;28;20836;-87
2021/06/21 03:22:58;;;;;;;5.90;2.43;;;18.50;99.80;;;;;;5059585;28;20504;-88
2021/06/21 03:25:28;;;;;;;5.90;2.20;;;18.50;99.80;;;;;;5042582;28;20482;-87
2021/06/21 03:27:57;;;;;;;13.30;2.40;;;18.50;99.80;;;;;;5059083;28;20474;-87
2021/06/21 03:30:26;;;;;;;9.07;2.50;;;18.50;99.80;;;;;;5052809;28;21042;-88
2021/06/21 03:32:54;;;;;;;9.43;2.70;;;18.50;99.80;;;;;;5051978;28;20830;-87
2021/06/21 03:35:22;;;;;;;14.23;3.37;;;18.50;99.80;;;;;;5052552;28;20462;-87
2021/06/21 03:37:51;;;;;;;7.17;2.30;;;18.50;99.80;;;;;;5054193;28;20482;-87
2021/06/21 03:40:21;;;;;;;9.20;2.60;;;18.60;99.80;;;;;;5030249;28;20466;-84
2021/06/21 03:42:49;;;;;;;3.10;1.90;;;18.60;99.80;;;;;;5042505;28;20478;-83
2021/06/21 03:45:17;;;;;;;6.60;2.67;;;18.60;99.80;;;;;;5052234;28;20531;-83
2021/06/21 03:47:46;;;;;;;6.50;2.07;;;18.60;99.80;;;;;;5048398;28;20573;-84
2021/06/21 03:50:15;;;;;;;10.23;2.43;;;18.60;99.80;;;;;;5039591;28;20477;-84
2021/06/21 03:52:42;;;;;;;2.33;2.13;;;18.60;99.80;;;;;;5058742;28;20471;-84
2021/06/21 03:55:12;;;;;;;16.10;2.23;;;18.60;99.80;;;;;;5036573;28;20475;-84
2021/06/21 03:57:43;;;;;;;13.40;3.00;;;18.60;99.80;;;;;;5054457;28;20476;-87
2021/06/21 04:00:16;;;;;;;6.40;2.20;;;18.60;99.80;;;;;;5047891;28;20469;-88
2021/06/21 04:02:44;;;;;;;8.77;2.63;;;18.60;99.80;;;;;;5051633;28;21033;-88
2021/06/21 04:05:16;;;;;;;5.60;2.90;;;18.60;99.80;;;;;;5051758;28;20472;-88
2021/06/21 04:07:45;;;;;;;7.63;2.37;;;18.50;99.80;;;;;;5045370;28;20451;-86
2021/06/21 04:10:18;;;;;;;7.13;2.40;;;18.60;99.80;;;;;;5025163;28;20484;-86
2021/06/21 04:12:48;;;;;;;6.30;2.17;;;18.50;99.80;;;;;;5024767;28;20478;-86
2021/06/21 04:15:19;;;;;;;7.53;2.37;;;18.60;99.80;;;;;;5037044;28;21067;-87
2021/06/21 04:17:48;;;;;;;12.63;3.10;;;18.70;99.80;;;;;;5043998;28;20463;-86
2021/06/21 04:20:18;;;;;;;9.00;2.50;;;18.70;99.80;;;;;;5041443;28;20487;-86
2021/06/21 04:22:46;;;;;;;5.60;2.47;;;18.80;99.80;;;;;;5078315;28;20505;-86
2021/06/21 04:25:16;;;;;;;6.37;2.33;;;18.80;99.80;;;;;;5056641;28;20469;-87
2021/06/21 04:27:47;;;;;;;10.17;2.77;;;18.90;99.80;;;;;;5061038;28;20466;-86
2021/06/21 04:30:18;;;;;;;7.20;2.53;;;18.90;99.80;;;;;;5061593;28;20467;-86
2021/06/21 04:32:46;;;;;;;6.50;2.60;;;18.90;99.80;;;;;;5064708;28;20458;-86
2021/06/21 04:35:16;;;;;;;8.60;2.87;;;18.90;99.80;;;;;;5068601;28;20471;-85
2021/06/21 04:37:48;;;;;;;17.87;3.00;;;18.80;99.80;;;;;;5056473;28;20458;-85
2021/06/21 04:40:18;;;;;;;5.47;2.60;;;18.70;99.80;;;;;;5086080;28;20462;-86
2021/06/21 04:42:47;;;;;;;6.90;2.13;;;18.70;99.80;;;;;;5075534;28;20473;-86
2021/06/21 04:45:16;;;;;;;16.53;3.20;;;18.70;99.80;;;;;;5071868;28;20841;-86
2021/06/21 04:47:45;;;;;;;8.93;2.93;;;18.70;99.80;;;;;;5068901;28;20473;-88
2021/06/21 04:50:17;;;;;;;4.63;2.77;;;18.70;99.80;;;;;;5066675;28;20480;-85
2021/06/21 04:52:46;;;;;;;14.90;2.43;;;18.80;99.80;;;;;;5057021;28;21011;-85
2021/06/21 04:55:16;;;;;;;7.37;2.83;;;19.00;99.80;;;;;;5062497;28;20889;-85
2021/06/21 04:57:45;;;;;;;6.17;2.17;;;19.10;99.80;;;;;;5063334;28;20492;-85
2021/06/21 05:00:16;;;;;;;6.53;3.60;;;19.20;99.80;;;;;;5052103;28;20531;-85
2021/06/21 05:02:44;;;;;;;11.47;2.67;;;19.20;99.80;;;;;;5062363;28;20478;-86
2021/06/21 05:05:13;;;;;;;8.93;2.30;;;19.30;99.80;;;;;;5073413;28;20470;-86
2021/06/21 05:07:42;;;;;;;8.13;2.70;;;19.30;99.80;;;;;;5069080;28;20487;-85
2021/06/21 05:10:14;;;;;;;9.63;2.70;;;19.20;99.80;;;;;;5062415;28;20831;-85
2021/06/21 05:12:42;;;;;;;9.77;2.60;;;19.30;99.80;;;;;;5042167;28;20486;-87
2021/06/21 05:15:11;;;;;;;4.50;2.30;;;19.30;99.80;;;;;;5059942;28;20482;-85
2021/06/21 05:17:42;;;;;;;7.63;2.63;;;19.30;99.80;;;;;;5067017;28;20458;-85
2021/06/21 05:20:11;;;;;;;4.83;2.73;;;19.40;99.80;;;;;;5064019;28;20484;-84
2021/06/21 05:22:39;;;;;;;5.37;2.60;;;19.40;99.80;;;;;;5068269;28;20474;-83
2021/06/21 05:25:08;;;;;;;9.97;2.63;;;19.40;99.80;;;;;;5058481;28;20474;-83
2021/06/21 05:27:36;;;;;;;9.40;2.40;;;19.40;99.80;;;;;;5057530;28;20485;-83
2021/06/21 05:30:06;;;;;;;8.27;3.00;;;19.40;99.80;;;;;;5059187;28;20501;-83
2021/06/21 05:32:36;;;;;;;3.20;2.30;;;19.40;99.80;;;;;;5058248;28;20462;-86
2021/06/21 05:35:06;;;;;;;8.00;3.10;;;19.40;99.80;;;;;;5054301;28;20463;-87
2021/06/21 05:37:35;;;;;;;5.60;3.07;;;19.40;99.80;;;;;;5058124;28;20461;-83
2021/06/21 05:40:03;;;;;;;5.80;2.33;;;19.40;99.80;;;;;;5050159;28;20565;-84
2021/06/21 05:42:31;;;;;;;5.37;2.50;;;19.30;99.80;;;;;;5059869;28;20485;-85
2021/06/21 05:44:59;;;;;;;5.00;2.23;;;19.30;99.80;;;;;;5052303;28;20472;-84
2021/06/21 05:47:27;;;;;;;7.73;2.33;;;19.30;99.80;;;;;;5039352;28;20471;-83
2021/06/21 05:49:55;;;;;;;6.67;2.50;;;19.40;99.80;;;;;;5062846;28;20479;-85
2021/06/21 05:52:24;;;;;;;6.30;2.33;;;19.40;99.80;;;;;;5067382;28;20466;-84
2021/06/21 05:54:58;;;;;;;4.60;3.20;;;19.40;99.80;;;;;;5064189;28;20473;-86
2021/06/21 05:57:27;;;;;;;3.37;2.83;;;19.50;99.80;;;;;;5060202;28;20557;-85
2021/06/21 05:59:55;;;;;;;8.50;3.53;;;19.50;99.80;;;;;;5060630;28;20491;-84
2021/06/21 06:02:25;;;;;;;4.87;3.00;;;19.70;99.80;;;;;;5072993;28;20468;-86
2021/06/21 06:04:53;;;;;;;3.50;2.53;;;19.70;99.80;;;;;;5037080;28;20455;-86
2021/06/21 06:07:24;;;;;;;4.20;2.20;;;19.90;99.80;;;;;;5029299;28;20905;-87
2021/06/21 06:09:52;;;;;;;6.83;2.47;;;19.90;99.80;;;;;;5023330;28;20522;-86
2021/06/21 06:12:20;;;;;;;13.27;2.57;;;20.00;99.80;;;;;;5034493;28;21085;-86
2021/06/21 06:14:48;;;;;;;6.93;2.80;;;20.10;99.80;;;;;;5050687;28;20553;-86
2021/06/21 06:17:16;;;;;;;4.60;2.53;;;20.20;99.80;;;;;;5046348;28;21000;-86
2021/06/21 06:19:44;;;;;;;3.93;2.23;;;20.40;99.80;;;;;;5052221;28;20484;-86
2021/06/21 06:22:12;;;;;;;3.43;2.10;;;20.60;99.80;;;;;;5039381;28;20538;-85
2021/06/21 06:24:42;;;;;;;6.03;2.00;;;20.70;99.80;;;;;;5055532;28;20562;-85
2021/06/21 06:27:10;;;;;;;4.20;2.07;;;20.70;99.80;;;;;;5045199;28;21210;-85
2021/06/21 06:29:38;;;;;;;2.63;2.00;;;20.70;99.80;;;;;;5034523;28;21032;-85
2021/06/21 06:32:07;;;;;;;4.50;2.10;;;20.70;99.80;;;;;;5042650;28;20471;-86
2021/06/21 06:34:35;;;;;;;6.30;2.40;;;20.60;99.80;;;;;;5041938;28;20464;-86
2021/06/21 06:37:04;;;;;;;4.47;2.10;;;20.70;99.80;;;;;;5058007;28;20552;-85
2021/06/21 06:39:32;;;;;;;2.87;1.80;;;20.90;99.80;;;;;;5058260;28;20462;-84
2021/06/21 06:42:02;;;;;;;3.60;2.27;;;21.00;99.80;;;;;;5053788;28;20482;-84
2021/06/21 06:44:30;;;;;;;7.33;2.10;;;20.90;99.80;;;;;;5029940;28;20476;-84
2021/06/21 06:46:58;;;;;;;4.20;2.37;;;20.90;99.80;;;;;;5055537;28;20461;-84
2021/06/21 06:49:26;;;;;;;5.73;2.47;;;20.70;99.80;;;;;;5064012;28;20538;-83
2021/06/21 06:51:55;;;;;;;6.10;1.83;;;20.70;99.80;;;;;;5052061;28;20483;-83
2021/06/21 06:54:27;;;;;;;6.27;2.57;;;20.80;99.80;;;;;;5052557;28;20838;-83
2021/06/21 06:57:00;;;;;;;2.07;1.97;;;20.90;99.80;;;;;;5044623;28;20845;-84
2021/06/21 06:59:31;;;;;;;4.67;2.53;;;21.00;99.80;;;;;;5031460;28;20482;-84
2021/06/21 07:02:01;;;;;;;3.77;2.60;;;21.00;99.80;;;;;;5057171;28;20466;-83
2021/06/21 07:04:31;;;;;;;10.93;2.10;;;21.10;99.80;;;;;;5069180;28;20474;-83
2021/06/21 07:07:00;;;;;;;2.87;2.57;;;21.20;99.80;;;;;;5064276;28;20459;-83
2021/06/21 07:09:29;;;;;;;6.27;2.43;;;21.20;99.80;;;;;;5055353;28;20474;-83
2021/06/21 07:11:57;;;;;;;3.60;2.23;;;21.30;99.80;;;;;;5063652;28;21093;-83
2021/06/21 07:14:26;;;;;;;3.90;2.43;;;21.30;99.80;;;;;;5053909;28;20554;-84
2021/06/21 07:16:55;;;;;;;7.70;2.40;;;21.40;99.80;;;;;;5061020;28;20467;-84
2021/06/21 07:19:23;;;;;;;3.97;2.00;;;21.50;99.80;;;;;;5054700;28;20451;-84
2021/06/21 07:21:52;;;;;;;2.97;2.40;;;21.80;99.80;;;;;;5049426;28;20482;-84
2021/06/21 07:24:21;;;;;;;3.97;2.20;;;22.20;99.80;;;;;;5057694;28;20562;-84
2021/06/21 07:26:52;;;;;;;3.90;2.00;;;22.40;99.80;;;;;;5038660;28;20843;-84
2021/06/21 07:29:20;;;;;;;7.00;1.77;;;22.40;99.80;;;;;;5048526;28;20480;-84
2021/06/21 07:31:49;;;;;;;10.53;2.00;;;22.30;99.80;;;;;;5044093;28;20496;-84
2021/06/21 07:34:19;;;;;;;5.47;2.80;;;22.10;99.80;;;;;;5041549;28;20485;-85
2021/06/21 07:36:47;;;;;;;2.10;2.00;;;22.00;99.80;;;;;;5043514;28;20464;-83
2021/06/21 07:39:15;;;;;;;5.20;1.90;;;21.90;99.80;;;;;;5044788;28;20494;-83
2021/06/21 07:41:43;;;;;;;5.97;2.00;;;21.90;99.80;;;;;;5034042;28;20559;-84
2021/06/21 07:44:16;;;;;;;2.90;2.03;;;21.90;99.80;;;;;;5034826;28;20479;-86
2021/06/21 07:46:45;;;;;;;2.80;2.50;;;22.00;99.80;;;;;;5044308;28;20463;-86
2021/06/21 07:49:13;;;;;;;2.33;1.90;;;22.10;99.80;;;;;;5037371;28;20869;-86
2021/06/21 07:51:43;;;;;;;4.53;2.13;;;22.20;99.80;;;;;;5048965;28;20849;-85
2021/06/21 07:54:14;;;;;;;3.60;1.80;;;22.30;99.80;;;;;;5058588;28;20478;-85
2021/06/21 07:56:42;;;;;;;10.40;2.50;;;22.20;99.80;;;;;;5044591;28;20850;-85
2021/06/21 07:59:10;;;;;;;4.10;2.17;;;22.20;99.80;;;;;;5020420;28;20478;-84
2021/06/21 08:01:38;;;;;;;2.57;1.83;;;22.20;99.80;;;;;;5047272;28;20475;-85
2021/06/21 08:04:07;;;;;;;3.33;2.00;;;22.70;99.80;;;;;;5040919;28;20486;-85
2021/06/21 08:06:37;;;;;;;2.30;1.83;;;;;;;;;;5040833;28;20472;-86
2021/06/21 08:09:06;;;;;;;1.90;1.80;;;23.00;99.80;;;;;;5043140;28;20966;-86
2021/06/21 08:11:34;;;;;;;3.47;1.80;;;22.80;99.80;;;;;;5032161;28;20467;-85
2021/06/21 08:14:03;;;;;;;2.00;1.80;;;22.40;99.80;;;;;;5032035;28;20547;-85
2021/06/21 08:16:32;;;;;;;2.40;2.07;;;22.40;99.80;;;;;;5037217;28;20471;-85
2021/06/21 08:19:00;;;;;;;4.70;2.37;;;22.50;99.80;;;;;;5038675;28;20467;-86
2021/06/21 08:21:28;;;;;;;3.00;2.10;;;22.60;99.80;;;;;;5036007;28;20537;-85
2021/06/21 08:23:57;;;;;;;4.37;1.90;;;22.40;99.80;;;;;;5027399;28;20460;-85
2021/06/21 08:26:27;;;;;;;3.10;1.90;;;22.50;99.80;;;;;;5032395;28;20569;-85
2021/06/21 08:28:55;;;;;;;5.73;1.70;;;22.60;99.80;;;;;;5032737;28;20458;-86
2021/06/21 08:31:23;;;;;;;3.50;2.30;;;22.60;99.80;;;;;;5046217;28;20481;-85
2021/06/21 08:33:51;;;;;;;9.03;2.27;;;22.60;99.80;;;;;;5052592;28;20506;-87
2021/06/21 08:36:19;;;;;;;9.73;2.20;;;22.20;99.80;;;;;;5033198;28;20475;-86
2021/06/21 08:38:47;;;;;;;4.40;1.93;;;22.20;99.80;;;;;;5051804;28;20483;-87
2021/06/21 08:41:15;;;;;;;8.47;2.33;;;22.30;99.80;;;;;;5050780;28;20514;-86
2021/06/21 08:43:47;;;;;;;2.50;1.90;;;22.50;99.80;;;;;;5035899;28;20497;-84
2021/06/21 08:46:16;;;;;;;4.57;2.30;;;22.80;99.80;;;;;;5054167;28;20855;-84
2021/06/21 08:48:46;;;;;;;2.33;2.13;;;22.80;99.80;;;;;;5052460;28;20472;-84
2021/06/21 08:51:16;;;;;;;2.40;2.17;;;23.40;99.60;;;;;;5049144;28;20482;-84
2021/06/21 08:53:44;;;;;;;6.13;1.63;;;23.70;98.80;;;;;;5026304;28;20843;-84
2021/06/21 08:56:12;;;;;;;2.90;1.90;;;24.00;97.50;;;;;;5040965;28;20851;-87
2021/06/21 08:58:40;;;;;;;3.90;2.07;;;24.00;97.50;;;;;;5040445;28;20471;-86
2021/06/21 09:01:10;;;;;;;6.43;2.03;;;23.90;94.30;;;;;;5040864;28;20474;-84
2021/06/21 09:03:39;;;;;;;2.60;1.93;;;23.90;95.10;;;;;;5050620;28;20954;-85
2021/06/21 09:06:19;;;;;;;4.20;1.80;;;23.80;93.70;;;;;;5046062;28;21386;-85
2021/06/21 09:08:55;;;;;;;4.07;2.27;;;23.80;95.70;;;;;;5052646;28;20472;-84
2021/06/21 09:11:51;;;;;;;2.40;2.20;;;23.70;95.00;;;;;;5028087;28;20514;-84
2021/06/21 09:14:30;;;;;;;3.53;1.83;;;23.70;96.60;;;;;;5020389;28;20468;-84
2021/06/21 09:17:01;;;;;;;6.60;2.37;;;23.60;97.70;;;;;;5035670;28;20479;-85
2021/06/21 09:19:30;;;;;;;3.23;2.47;;;23.70;98.40;;;;;;5057514;28;20482;-84
2021/06/21 09:21:58;;;;;;;3.10;2.77;;;23.70;98.50;;;;;;5074073;28;20467;-84
2021/06/21 09:24:28;;;;;;;4.10;2.13;;;23.90;94.80;;;;;;5066314;28;20465;-83
2021/06/21 09:26:58;;;;;;;2.83;2.03;;;23.90;94.90;;;;;;5054387;28;20906;-84
2021/06/21 09:29:37;;;;;;;3.93;2.00;;;24.00;94.30;;;;;;5074176;28;20478;-84
2021/06/21 09:32:45;;;;;;;6.73;2.77;;;24.00;94.20;;;;;;5060918;28;20493;-83
2021/06/21 09:35:38;;;;;;;4.50;2.50;;;23.90;94.60;;;;;;5060683;28;20569;-81
2021/06/21 09:38:14;;;;;;;3.10;2.10;;;23.90;94.20;;;;;;5054238;28;20461;-84
2021/06/21 09:40:46;;;;;;;3.83;2.00;;;23.80;94.50;;;;;;5063299;28;20461;-84
2021/06/21 09:43:32;;;;;;;2.03;1.87;;;23.80;95.50;;;;;;5036601;28;20473;-85
2021/06/21 09:46:11;;;;;;;4.80;2.10;;;23.50;94.50;;;;;;5050946;28;20965;-85
2021/06/21 09:48:42;;;;;;;4.37;2.30;;;23.50;94.30;;;;;;5069426;28;20497;-86
2021/06/21 09:51:28;;;;;;;4.33;2.10;;;23.50;94.30;;;;;;5062072;28;20463;-85
2021/06/21 09:53:59;;;;;;;2.40;2.13;;;24.20;95.80;;;;;;5065042;28;21398;-84
2021/06/21 09:56:39;;;;;;;2.57;2.43;;;24.70;92.60;;;;;;5060119;28;21267;-86
2021/06/21 09:59:20;;;;;;;3.73;2.20;;;24.80;91.30;;;;;;5064980;28;20465;-84
2021/06/21 10:02:06;;;;;;;4.03;2.80;;;24.80;91.40;;;;;;5056806;28;20475;-84
2021/06/21 10:04:37;;;;;;;5.17;3.17;;;24.60;93.20;;;;;;5047868;28;20551;-86
2021/06/21 10:07:25;;;;;;;6.43;2.40;;;24.90;90.50;;;;;;5041066;28;20470;-85
2021/06/21 10:09:54;;;;;;;2.93;2.63;;;25.00;90.60;;;;;;5055500;28;20994;-85
2021/06/21 10:12:23;;;;;;;7.13;2.77;;;24.90;89.70;;;;;;5052548;28;20467;-85
2021/06/21 10:14:51;;;;;;;3.57;2.70;;;24.90;89.70;;;;;;5046395;28;20467;-85
2021/06/21 10:17:19;;;;;;;7.17;2.67;;;;;;;;;;5041439;28;20466;-85
2021/06/21 10:19:49;;;;;;;4.73;2.70;;;24.60;90.40;;;;;;5056705;28;21022;-85
2021/06/21 10:22:19;;;;;;;3.60;2.70;;;24.50;91.10;;;;;;5074232;28;20458;-85
2021/06/21 10:24:50;;;;;;;4.93;2.60;;;24.60;92.20;;;;;;5049926;28;20469;-85
2021/06/21 10:27:20;;;;;;;4.37;2.90;;;24.60;91.00;;;;;;5040703;28;20822;-85
2021/06/21 10:29:48;;;;;;;3.10;2.90;;;24.80;93.00;;;;;;5041021;28;20487;-84
2021/06/21 10:32:17;;;;;;;4.00;2.57;;;24.90;92.30;;;;;;5051359;28;20475;-85
2021/06/21 10:34:49;;;;;;;3.60;2.50;;;25.00;90.50;;;;;;5051099;28;20517;-85
2021/06/21 10:37:20;;;;;;;3.90;2.90;;;24.90;91.00;;;;;;5038436;28;20472;-85
2021/06/21 10:39:54;;;;;;;4.53;2.67;;;24.90;90.90;;;;;;5042137;28;20487;-86
2021/06/21 10:42:23;;;;;;;4.40;2.73;;;24.60;92.40;;;;;;5033294;28;21114;-86
2021/06/21 10:44:55;;;;;;;4.50;2.93;;;24.70;92.50;;;;;;5047278;28;20951;-86
2021/06/21 10:47:35;;;;;;;2.73;2.53;;;24.80;90.70;;;;;;5054275;28;20937;-87
2021/06/21 10:50:10;;;;;;;3.37;2.47;;;24.60;91.10;;;;;;5050272;28;20567;-86
2021/06/21 10:52:46;;;;;;;2.83;2.63;;;24.40;92.60;;;;;;5060795;28;20469;-85
2021/06/21 10:55:40;;;;;;;3.07;2.70;;;24.50;92.50;;;;;;5052837;28;20451;-85
2021/06/21 10:58:34;;;;;;;3.70;3.07;;;24.50;92.20;;;;;;5052740;28;20548;-85
2021/06/21 11:01:22;;;;;;;3.77;2.43;;;24.70;93.90;;;;;;5046856;28;20464;-85
2021/06/21 11:03:51;;;;;;;2.40;2.30;;;25.20;91.70;;;;;;5054213;28;20451;-84
2021/06/21 11:06:40;;;;;;;3.87;2.47;;;25.30;92.20;;;;;;5057913;28;20460;-84
2021/06/21 11:09:10;;;;;;;3.57;2.30;;;25.40;92.30;;;;;;5047782;28;20505;-84
2021/06/21 11:11:52;;;;;;;3.30;3.00;;;26.00;88.40;;;;;;5055714;28;20941;-84
2021/06/21 11:14:22;;;;;;;6.03;2.20;;;26.00;88.00;;;;;;5055504;28;20481;-85
2021/06/21 11:16:52;;;;;;;2.47;2.27;;;25.90;87.70;;;;;;5038838;28;20471;-84
2021/06/21 11:19:31;;;;;;;4.03;2.50;;;25.90;87.70;;;;;;5024558;28;20478;-84
2021/06/21 11:22:07;;;;;;;5.47;3.00;;;25.60;88.40;;;;;;5044722;28;20457;-84
2021/06/21 11:24:55;;;;;;;2.57;2.47;;;25.50;88.60;;;;;;5036783;28;20479;-84
2021/06/21 11:27:39;;;;;;;2.67;2.33;;;25.30;87.50;;;;;;5025174;28;20459;-84
2021/06/21 11:30:39;;;;;;;3.00;2.80;;;25.30;88.90;;;;;;5028373;28;20513;-84
2021/06/21 11:33:10;;;;;;;6.27;2.70;;;25.20;87.60;;;;;;5044266;28;20472;-84
2021/06/21 11:35:48;;;;;;;5.60;2.57;;;25.40;87.60;;;;;;5043512;28;20458;-85
2021/06/21 11:38:45;;;;;;;3.87;2.20;;;25.70;87.00;;;;;;5039221;28;20946;-84
2021/06/21 11:41:29;;;;;;;5.53;2.53;;;25.80;87.30;;;;;;5050805;28;20465;-84
2021/06/21 11:44:00;;;;;;;5.33;3.63;;;26.30;85.70;;;;;;5054173;28;20485;-85
2021/06/21 11:46:43;;;;;;;3.63;3.10;;;27.10;85.00;;;;;;5028315;28;21004;-85
2021/06/21 11:49:13;;;;;;;6.93;3.90;;;27.20;84.70;;;;;;5057234;28;20541;-84
2021/06/21 11:52:01;;;;;;;12.13;2.93;;;27.60;82.60;;;;;;5017183;28;21192;-87
2021/06/21 11:54:39;;;;;;;2.63;2.43;;;27.90;80.80;;;;;;5037148;28;20525;-87
2021/06/21 11:57:08;;;;;;;3.40;2.57;;;27.70;79.10;;;;;;5057806;28;20473;-84
2021/06/21 11:59:37;;;;;;;3.90;3.10;;;27.70;79.10;;;;;;5058259;28;20560;-84
2021/06/21 12:02:08;;;;;;;2.30;2.13;;;27.00;80.10;;;;;;5063620;28;20870;-84
2021/06/21 12:04:37;;;;;;;3.27;2.60;;;27.10;80.10;;;;;;5061614;28;21193;-84
2021/06/21 12:07:06;;;;;;;3.17;2.97;;;26.90;81.50;;;;;;5053127;28;20486;-84
2021/06/21 12:09:52;;;;;;;2.60;2.07;;;27.20;81.30;;;;;;5042608;28;20471;-84
2021/06/21 12:12:25;;;;;;;3.67;2.47;;;27.60;79.20;;;;;;5032063;28;20474;-84
2021/06/21 12:14:53;;;;;;;2.07;1.90;;;28.70;77.70;;;;;;5054767;28;20462;-85
2021/06/21 12:17:22;;;;;;;1.87;1.77;;;29.80;72.10;;;;;;5068343;28;20524;-83
2021/06/21 12:20:06;;;;;;;2.23;1.53;;;;;;;;;;5049422;28;20988;-83
2021/06/21 12:22:34;;;;;;;2.33;1.50;;;;;;;;;;5046430;28;20491;-85
2021/06/21 12:25:05;;;;;;;1.63;1.53;;;;;;;;;;5041544;28;21065;-84
2021/06/21 12:27:34;;;;;;;1.70;1.57;;;34.50;60.30;;;;;;5028618;28;20477;-84
2021/06/21 12:30:02;;;;;;;3.70;1.50;;;35.00;61.60;;;;;;5059224;28;20589;-86
2021/06/21 12:32:34;;;;;;;1.67;1.57;;;35.70;59.00;;;;;;5042425;28;20871;-85
2021/06/21 12:35:05;;;;;;;1.70;1.60;;;36.50;58.60;;;;;;5048048;28;20487;-85
2021/06/21 12:37:35;;;;;;;1.53;1.43;;;37.10;57.90;;;;;;5023771;28;20479;-84
2021/06/21 12:40:15;;;;;;;2.10;1.40;;;37.30;56.90;;;;;;5021878;28;20466;-86
2021/06/21 12:42:44;;;;;;;1.63;1.50;;;37.30;57.00;;;;;;5055940;28;20481;-85
2021/06/21 12:45:14;;;;;;;1.93;1.60;;;37.40;56.10;;;;;;5028803;28;20476;-85
2021/06/21 12:47:46;;;;;;;1.60;1.47;;;37.40;56.40;;;;;;5051918;28;20523;-84
2021/06/21 12:50:16;;;;;;;2.07;1.47;;;37.50;57.60;;;;;;5043280;28;20455;-85
2021/06/21 12:52:47;;;;;;;3.03;1.67;;;37.70;57.80;;;;;;5036288;28;20521;-86
2021/06/21 12:55:22;;;;;;;3.10;1.37;;;37.70;57.80;;;;;;5051520;28;20857;-85
2021/06/21 12:57:54;;;;;;;1.60;1.50;;;38.50;53.70;;;;;;5035389;28;20471;-84
2021/06/21 13:00:41;;;;;;;1.30;1.20;;;38.30;54.70;;;;;;5031601;28;20482;-85
2021/06/21 13:03:11;;;;;;;1.80;1.60;;;37.60;56.10;;;;;;5049819;28;20469;-84
2021/06/21 13:05:44;;;;;;;2.90;1.40;;;37.60;56.10;;;;;;5041827;28;20511;-84
2021/06/21 13:08:14;;;;;;;2.03;1.93;;;37.60;56.70;;;;;;5039148;28;20984;-86
2021/06/21 13:10:44;;;;;;;2.13;1.60;;;37.70;55.50;;;;;;5033001;28;20497;-85